Time;durP1;ratioP1;P1;durP2;ratioP2;P2;SDS_P1;SDS_P2;PMS_P1;PMS_P2;Temp;Humidity;BMP_temperature;BMP_pressure;BME280_temperature;BME280_humidity;BME280_pressure;Samples;Min_cycle;Max_cycle;Signal;HPM_P1;HPM_P2
2022/08/30 00:01:31;;;;;;;3.17;2.10;;;;;;;17.17;63.94;98428.53;6241871;23;20062;-82
2022/08/30 00:03:59;;;;;;;3.03;2.10;;;;;;;17.10;65.82;98426.03;6242184;23;20077;-82
2022/08/30 00:06:28;;;;;;;3.38;2.08;;;;;;;17.12;64.34;98429.22;6214750;23;20012;-82
2022/08/30 00:08:56;;;;;;;2.42;2.22;;;;;;;17.10;66.15;98434.78;6241901;23;20506;-81
2022/08/30 00:11:27;;;;;;;2.15;1.95;;;;;;;16.96;66.26;98417.50;6242570;23;20119;-82
2022/08/30 00:13:55;;;;;;;3.70;2.33;;;;;;;16.96;66.31;98433.38;6215531;23;20442;-82
2022/08/30 00:16:25;;;;;;;1.55;1.45;;;;;;;16.95;68.24;98420.38;6241327;23;20012;-82
2022/08/30 00:18:52;;;;;;;2.15;1.63;;;;;;;17.02;68.60;98421.06;6215331;23;20031;-82
2022/08/30 00:21:20;;;;;;;1.88;1.50;;;;;;;17.07;68.12;98423.81;6214000;23;20016;-82
2022/08/30 00:23:49;;;;;;;2.65;1.67;;;;;;;17.08;68.07;98430.72;6241630;23;20038;-82
2022/08/30 00:26:16;;;;;;;3.05;2.00;;;;;;;16.95;67.89;98425.69;6214896;23;20392;-82
2022/08/30 00:28:42;;;;;;;2.85;2.45;;;;;;;16.72;66.77;98427.31;6241440;23;20023;-81
2022/08/30 00:31:09;;;;;;;3.33;2.55;;;;;;;16.66;67.79;98438.78;6214902;23;20020;-81
2022/08/30 00:33:40;;;;;;;4.35;3.60;;;;;;;16.46;68.12;98438.31;6242041;23;20023;-82
2022/08/30 00:36:07;;;;;;;4.53;3.28;;;;;;;16.29;68.91;98436.34;6242490;23;20016;-82
2022/08/30 00:38:33;;;;;;;4.38;3.35;;;;;;;16.11;69.86;98441.72;6215070;23;20020;-81
2022/08/30 00:41:00;;;;;;;3.35;3.00;;;;;;;16.01;70.70;98438.81;6242381;23;20024;-83
2022/08/30 00:43:32;;;;;;;4.60;3.10;;;;;;;16.07;70.69;98445.84;6242047;23;20430;-82
2022/08/30 00:46:06;;;;;;;2.70;2.50;;;;;;;16.11;70.96;98447.00;6241605;23;20027;-82
2022/08/30 00:48:41;;;;;;;3.33;2.30;;;;;;;16.14;71.11;98435.97;6241514;23;20070;-82
2022/08/30 00:51:12;;;;;;;4.05;2.85;;;;;;;16.09;71.12;98437.69;6241590;23;20016;-82
2022/08/30 00:53:44;;;;;;;;;;;;;;;16.06;71.31;98444.22;6238663;23;20020;-82
2022/08/30 00:56:13;;;;;;;2.45;2.13;;;;;;;16.08;71.98;98434.25;6241336;23;19950;-82
2022/08/30 00:58:47;;;;;;;2.15;1.83;;;;;;;16.16;71.65;98427.81;6242340;23;20388;-82
2022/08/30 01:01:14;;;;;;;4.18;2.70;;;;;;;16.02;71.39;98429.84;6241273;23;20012;-81
2022/08/30 01:03:43;;;;;;;3.75;2.80;;;;;;;15.99;71.17;98431.09;6241213;23;20027;-81
2022/08/30 01:06:14;;;;;;;3.38;2.10;;;;;;;16.09;71.21;98437.69;6241435;23;20020;-82
2022/08/30 01:08:42;;;;;;;2.40;1.90;;;;;;;16.08;71.84;98428.16;6215368;23;20122;-82
2022/08/30 01:11:13;;;;;;;2.88;1.85;;;;;;;16.20;72.31;98429.78;6241732;23;20430;-82
2022/08/30 01:13:41;;;;;;;;;;;;;;;16.23;71.92;98429.31;6242409;23;20016;-82
2022/08/30 01:16:09;;;;;;;2.17;1.98;;;;;;;16.16;71.83;98427.81;6240784;23;19919;-82
2022/08/30 01:18:38;;;;;;;4.22;2.53;;;;;;;16.02;71.45;98425.38;6241060;23;20020;-82
2022/08/30 01:21:33;;;;;;;3.10;2.40;;;;;;;16.05;71.29;98434.69;6242953;23;20314;-81
2022/08/30 01:24:01;;;;;;;2.75;2.10;;;;;;;16.06;71.91;98428.34;6243028;22;20043;-82
2022/08/30 01:26:30;;;;;;;2.47;1.98;;;;;;;16.15;72.42;98429.66;6243277;23;20422;-82
2022/08/30 01:29:04;;;;;;;2.78;1.73;;;;;;;16.12;72.02;98432.75;6242736;23;20016;-82
2022/08/30 01:31:35;;;;;;;1.83;1.55;;;;;;;16.17;72.58;98429.41;6216603;23;20019;-82
2022/08/30 01:34:06;;;;;;;1.70;1.60;;;;;;;16.08;71.92;98414.91;6243526;23;20016;-81
2022/08/30 01:36:37;;;;;;;2.20;1.50;;;;;;;16.18;72.33;98426.53;6243569;23;20016;-82
2022/08/30 01:39:14;;;;;;;2.03;1.83;;;;;;;16.09;72.65;98422.63;6242905;23;20027;-82
2022/08/30 01:41:42;;;;;;;2.20;1.60;;;;;;;16.13;72.18;98429.06;6243500;23;20020;-82
2022/08/30 01:44:12;;;;;;;2.15;1.60;;;;;;;16.18;72.21;98437.13;6243727;23;20016;-82
2022/08/30 01:46:46;;;;;;;1.97;1.83;;;;;;;16.02;72.17;98427.22;6243162;23;20783;-82
2022/08/30 01:49:17;;;;;;;2.00;1.80;;;;;;;16.07;72.77;98435.25;6216032;23;20239;-81
2022/08/30 01:51:54;;;;;;;2.00;1.42;;;;;;;16.01;72.81;98425.56;6243684;23;20581;-81
2022/08/30 01:54:29;;;;;;;3.42;2.35;;;;;;;15.84;71.82;98427.28;6238360;23;20020;-82
2022/08/30 01:57:16;;;;;;;3.53;3.10;;;;;;;15.69;72.03;98439.06;6216042;23;20016;-82
2022/08/30 01:59:46;;;;;;;6.70;3.72;;;;;;;15.44;72.26;98438.34;6216035;23;20066;-82
2022/08/30 02:02:19;;;;;;;4.13;3.50;;;;;;;15.23;73.55;98429.00;6242692;23;20649;-81
2022/08/30 02:04:46;;;;;;;5.32;3.55;;;;;;;15.19;74.13;98439.25;6242853;23;20097;-81
2022/08/30 02:07:13;;;;;;;3.65;3.00;;;;;;;15.19;74.40;98431.31;6242525;23;20012;-81
2022/08/30 02:09:43;;;;;;;3.85;3.38;;;;;;;15.11;74.74;98425.50;6215947;23;20020;-82
2022/08/30 02:12:13;;;;;;;4.10;3.70;;;;;;;15.09;74.78;98430.19;6242807;23;20074;-82
2022/08/30 02:14:39;;;;;;;3.78;3.03;;;;;;;15.05;75.13;98432.47;6243263;23;20016;-82
2022/08/30 02:17:09;;;;;;;4.30;3.47;;;;;;;15.02;74.73;98426.84;6243001;23;20023;-82
2022/08/30 02:19:36;;;;;;;5.97;3.47;;;;;;;14.94;75.08;98423.47;6216904;23;20020;-82
2022/08/30 02:22:05;;;;;;;6.32;3.60;;;;;;;14.93;75.38;98429.78;6242885;23;20055;-81
2022/08/30 02:24:32;;;;;;;3.35;2.85;;;;;;;15.03;75.30;98429.25;6219255;23;20023;-81
2022/08/30 02:26:59;;;;;;;2.40;2.17;;;;;;;15.05;76.02;98426.38;6243278;23;20019;-81
2022/08/30 02:29:26;;;;;;;4.63;3.28;;;;;;;14.99;74.86;98428.06;6244068;23;20062;-82
2022/08/30 02:31:52;;;;;;;4.97;3.75;;;;;;;14.76;75.93;98425.28;6242500;23;20016;-82
2022/08/30 02:34:19;;;;;;;5.97;4.30;;;;;;;14.65;76.42;98432.88;6242907;23;20055;-81
2022/08/30 02:36:46;;;;;;;4.72;3.85;;;;;;;14.54;77.12;98417.75;6242463;23;20051;-82
2022/08/30 02:39:14;;;;;;;4.63;3.75;;;;;;;14.51;76.79;98418.16;6242660;23;20028;-81
2022/08/30 02:41:41;;;;;;;5.60;4.07;;;;;;;14.50;77.19;98427.13;6242927;23;20024;-81
2022/08/30 02:44:09;;;;;;;5.93;3.90;;;;;;;14.45;77.71;98425.13;6242865;23;20016;-81
2022/08/30 02:46:36;;;;;;;6.90;3.80;;;;;;;14.44;77.25;98415.56;6242810;23;20073;-82
2022/08/30 02:49:05;;;;;;;5.07;3.75;;;;;;;14.51;77.45;98427.94;6242851;23;20016;-81
2022/08/30 02:51:51;;;;;;;4.63;3.70;;;;;;;14.49;77.49;98433.44;6242783;23;20051;-81
2022/08/30 02:54:21;;;;;;;5.05;3.90;;;;;;;14.40;78.02;98434.72;6239430;23;20020;-81
2022/08/30 02:56:49;;;;;;;4.80;3.72;;;;;;;14.40;78.03;98430.22;6242605;23;20090;-81
2022/08/30 02:59:17;;;;;;;5.80;3.90;;;;;;;14.34;78.33;98432.94;6242218;23;20054;-80
2022/08/30 03:01:44;;;;;;;4.78;3.72;;;;;;;14.34;78.09;98423.19;6242341;23;20448;-81
2022/08/30 03:04:11;;;;;;;5.10;3.80;;;;;;;14.31;78.32;98428.06;6242583;23;20020;-81
2022/08/30 03:06:37;;;;;;;4.35;3.50;;;;;;;14.24;78.24;98416.75;6215593;23;20074;-81
2022/08/30 03:09:04;;;;;;;4.07;3.08;;;;;;;14.28;78.13;98426.69;6215115;23;20066;-81
2022/08/30 03:11:31;;;;;;;3.75;3.13;;;;;;;14.30;78.13;98432.53;6242578;23;20323;-81
2022/08/30 03:13:58;;;;;;;3.30;3.00;;;;;;;14.28;78.20;98436.44;6241981;23;20093;-81
2022/08/30 03:16:25;;;;;;;3.78;2.85;;;;;;;14.38;78.03;98432.25;6243086;23;20020;-81
2022/08/30 03:18:52;;;;;;;3.22;2.78;;;;;;;14.42;77.61;98432.66;6242998;23;20020;-81
2022/08/30 03:21:18;;;;;;;3.92;3.28;;;;;;;14.42;77.65;98427.38;6241998;23;20311;-81
2022/08/30 03:23:45;;;;;;;4.03;3.47;;;;;;;14.34;78.03;98425.00;6242040;23;20016;-81
2022/08/30 03:26:13;;;;;;;3.30;2.67;;;;;;;14.39;78.17;98435.69;6242097;22;20020;-81
2022/08/30 03:28:42;;;;;;;3.40;2.40;;;;;;;14.48;78.27;98425.72;6241907;23;20070;-81
2022/08/30 03:31:10;;;;;;;3.83;2.30;;;;;;;14.59;78.09;98423.19;6242470;23;20425;-82
2022/08/30 03:33:42;;;;;;;2.63;2.28;;;;;;;14.61;77.83;98423.78;6242811;23;20078;-81
2022/08/30 03:36:10;;;;;;;2.00;1.75;;;;;;;14.72;77.61;98428.34;6242180;23;20384;-81
2022/08/30 03:38:38;;;;;;;2.38;1.80;;;;;;;14.79;76.93;98440.69;6241818;23;20012;-81
2022/08/30 03:41:05;;;;;;;2.40;1.80;;;;;;;14.82;76.57;98427.06;6242205;23;20017;-81
2022/08/30 03:43:34;;;;;;;1.75;1.60;;;;;;;14.91;76.45;98436.28;6241676;23;20026;-81
2022/08/30 03:46:02;;;;;;;1.85;1.48;;;;;;;14.93;76.56;98436.88;6242443;23;20016;-81
2022/08/30 03:48:29;;;;;;;2.25;1.95;;;;;;;14.88;75.78;98434.09;6242102;23;20065;-81
2022/08/30 03:50:56;;;;;;;2.50;1.90;;;;;;;14.86;76.19;98444.06;6241947;23;20016;-81
2022/08/30 03:53:23;;;;;;;3.80;2.83;;;;;;;14.75;76.46;98439.47;6238718;23;20369;-81
2022/08/30 03:55:54;;;;;;;2.60;2.17;;;;;;;14.77;76.74;98438.25;6215935;23;20020;-81
2022/08/30 03:58:23;;;;;;;3.45;2.00;;;;;;;14.76;76.56;98441.13;6242291;23;20409;-81
2022/08/30 04:00:50;;;;;;;2.50;2.30;;;;;;;14.65;76.56;98437.34;6241396;23;20020;-81
2022/08/30 04:03:17;;;;;;;2.05;1.90;;;;;;;14.59;76.79;98438.22;6241182;23;20091;-81
2022/08/30 04:05:44;;;;;;;3.70;1.70;;;;;;;14.55;77.28;98435.19;6242093;23;20409;-81
2022/08/30 04:08:10;;;;;;;2.65;1.90;;;;;;;14.64;77.71;98441.03;6241887;23;20050;-81
2022/08/30 04:10:37;;;;;;;2.38;2.08;;;;;;;14.60;76.80;98435.38;6241072;23;20433;-81
2022/08/30 04:13:04;;;;;;;4.32;2.78;;;;;;;14.46;76.87;98436.47;6241948;23;20066;-81
2022/08/30 04:15:31;;;;;;;5.35;3.65;;;;;;;14.21;77.57;98436.44;6241251;23;20020;-81
2022/08/30 04:17:57;;;;;;;6.32;3.40;;;;;;;14.17;77.97;98438.72;6241112;23;20024;-81
2022/08/30 04:20:24;;;;;;;5.70;3.13;;;;;;;14.15;78.35;98448.69;6242373;23;20020;-80
2022/08/30 04:22:51;;;;;;;3.40;3.10;;;;;;;14.10;78.56;98448.53;6241251;23;20016;-81
2022/08/30 04:25:18;;;;;;;3.45;2.80;;;;;;;14.13;78.58;98444.63;6240861;22;20449;-81
2022/08/30 04:27:45;;;;;;;2.63;2.15;;;;;;;14.16;78.53;98445.03;6240413;23;20012;-81
2022/08/30 04:30:14;;;;;;;3.17;2.40;;;;;;;14.21;78.32;98449.63;6214996;23;20047;-81
2022/08/30 04:32:42;;;;;;;2.67;1.92;;;;;;;14.30;78.27;98452.84;6241241;23;20083;-81
2022/08/30 04:35:11;;;;;;;2.00;1.80;;;;;;;14.38;78.39;98450.72;6214592;23;20023;-81
2022/08/30 04:37:39;;;;;;;2.00;1.67;;;;;;;14.44;77.72;98456.97;6214812;23;20062;-82
2022/08/30 04:40:07;;;;;;;1.70;1.52;;;;;;;14.54;77.91;98453.91;6214741;23;20023;-81
2022/08/30 04:42:35;;;;;;;1.92;1.42;;;;;;;14.57;77.78;98459.53;6240943;23;20099;-81
2022/08/30 04:45:09;;;;;;;1.48;1.38;;;;;;;14.65;76.83;98466.41;6241071;23;20023;-81
2022/08/30 04:47:37;;;;;;;2.30;1.73;;;;;;;14.55;76.93;98453.69;6241344;23;20086;-81
2022/08/30 04:50:08;;;;;;;2.05;1.80;;;;;;;14.60;76.92;98471.50;6241684;23;20020;-81
2022/08/30 04:52:35;;;;;;;2.17;1.63;;;;;;;14.61;76.71;98476.56;6240765;23;20018;-81
2022/08/30 04:55:04;;;;;;;1.80;1.23;;;;;;;14.69;76.94;98480.75;6238304;23;20503;-81
2022/08/30 04:57:32;;;;;;;2.05;1.60;;;;;;;14.70;76.60;98483.22;6243471;23;20016;-81
2022/08/30 04:59:58;;;;;;;2.30;1.60;;;;;;;14.77;76.56;98482.34;6243471;23;20016;-81
2022/08/30 05:02:25;;;;;;;2.10;1.85;;;;;;;14.78;76.35;98486.59;6243729;23;20027;-82
2022/08/30 05:07:40;;;;;;;2.08;1.58;;;;;;;14.77;76.50;98485.78;6215656;23;20020;-81
2022/08/30 05:10:07;;;;;;;1.83;1.48;;;;;;;14.82;76.23;98477.22;6243186;23;20495;-81
2022/08/30 05:12:37;;;;;;;1.88;1.60;;;;;;;14.87;76.37;98487.91;6243552;23;20828;-82
2022/08/30 05:15:05;;;;;;;1.75;1.40;;;;;;;14.92;76.36;98491.53;6243666;23;20016;-81
2022/08/30 05:17:32;;;;;;;3.03;1.70;;;;;;;14.84;76.01;98481.25;6243334;23;20013;-81
2022/08/30 05:20:03;;;;;;;1.90;1.70;;;;;;;14.82;75.78;98480.66;6243575;23;20016;-81
2022/08/30 05:22:30;;;;;;;;;;;;;;;14.88;76.13;98493.00;6243450;23;20059;-81
2022/08/30 05:24:58;;;;;;;1.85;1.50;;;;;;;14.86;75.78;98481.03;6244088;22;19945;-81
2022/08/30 05:27:25;;;;;;;2.08;1.50;;;;;;;14.88;76.83;98484.28;6243933;23;20470;-81
2022/08/30 05:29:51;;;;;;;1.58;1.40;;;;;;;14.99;76.22;98491.44;6243683;23;20020;-81
2022/08/30 05:32:18;;;;;;;1.70;1.40;;;;;;;15.03;76.16;98497.91;6242631;23;20016;-82
2022/08/30 05:34:46;;;;;;;2.13;1.65;;;;;;;15.05;76.29;98476.56;6242940;23;20020;-81
2022/08/30 05:37:16;;;;;;;1.85;1.52;;;;;;;15.04;75.67;98473.13;6243023;23;20026;-80
2022/08/30 05:39:43;;;;;;;1.77;1.38;;;;;;;15.01;75.70;98467.47;6243232;23;20392;-82
2022/08/30 05:42:17;;;;;;;1.95;1.40;;;;;;;15.08;76.06;98468.22;6217846;23;20040;-81
2022/08/30 05:44:44;;;;;;;1.52;1.42;;;;;;;15.16;76.12;98475.84;6215650;23;20016;-81
2022/08/30 05:47:11;;;;;;;1.67;1.45;;;;;;;15.21;76.22;98473.34;6215791;23;20016;-81
2022/08/30 05:49:37;;;;;;;1.52;1.42;;;;;;;15.23;75.94;98466.00;6242825;23;20024;-81
2022/08/30 05:52:04;;;;;;;1.55;1.45;;;;;;;15.34;75.46;98477.69;6243156;23;20047;-81
2022/08/30 05:54:31;;;;;;;2.72;2.30;;;;;;;15.17;74.46;98465.09;6238428;23;20020;-81
2022/08/30 05:56:58;;;;;;;3.67;2.58;;;;;;;15.11;74.91;98473.84;6215911;23;20020;-81
2022/08/30 05:59:25;;;;;;;2.33;2.05;;;;;;;15.15;75.62;98479.53;6243988;23;20012;-81
2022/08/30 06:01:57;;;;;;;1.95;1.55;;;;;;;15.25;76.31;98479.81;6243656;23;20023;-82
2022/08/30 06:04:24;;;;;;;1.70;1.60;;;;;;;15.41;75.76;98473.13;6243801;23;20012;-81
2022/08/30 06:06:51;;;;;;;1.63;1.52;;;;;;;15.45;74.27;98469.81;6243046;23;20020;-81
2022/08/30 06:09:18;;;;;;;2.20;1.90;;;;;;;15.65;75.15;98487.31;6216558;23;20012;-82
2022/08/30 06:11:46;;;;;;;2.97;1.75;;;;;;;15.72;74.05;98486.22;6242988;23;20020;-81
2022/08/30 06:14:14;;;;;;;3.10;2.08;;;;;;;15.85;73.20;98489.72;6243081;23;20046;-81
2022/08/30 06:16:44;;;;;;;2.13;1.70;;;;;;;15.91;72.99;98483.53;6243293;23;20070;-81
2022/08/30 06:19:12;;;;;;;1.98;1.80;;;;;;;16.08;73.24;98484.50;6216363;23;20016;-82
2022/08/30 06:21:40;;;;;;;2.00;1.70;;;;;;;16.23;71.41;98498.13;6243431;23;20016;-82
2022/08/30 06:24:10;;;;;;;2.25;2.05;;;;;;;16.33;72.02;98497.59;6242785;22;20648;-82
2022/08/30 06:26:41;;;;;;;3.17;1.95;;;;;;;16.47;71.88;98483.09;6242917;23;20020;-82
2022/08/30 06:29:12;;;;;;;2.63;1.80;;;;;;;16.64;71.40;98483.25;6243535;23;20295;-82
2022/08/30 06:31:39;;;;;;;4.90;2.20;;;;;;;16.69;69.98;98491.31;6216714;23;20410;-82
2022/08/30 06:34:06;;;;;;;4.25;3.75;;;;;;;16.64;70.99;98500.97;6216271;23;20023;-82
2022/08/30 06:36:33;;;;;;;4.45;3.30;;;;;;;16.62;71.65;98490.63;6243850;23;20031;-83
2022/08/30 06:39:00;;;;;;;4.88;2.80;;;;;;;16.84;71.28;98499.63;6243520;23;20066;-82
2022/08/30 06:41:31;;;;;;;3.75;2.20;;;;;;;16.98;71.38;98486.16;6243705;23;20016;-83
2022/08/30 06:44:01;;;;;;;2.60;1.90;;;;;;;17.23;71.33;98492.03;6244277;23;20074;-83
2022/08/30 06:46:34;;;;;;;3.23;2.40;;;;;;;17.39;69.16;98488.66;6216043;23;20016;-83
2022/08/30 06:49:02;;;;;;;3.17;2.42;;;;;;;17.59;68.10;98500.72;6243576;23;20232;-83
2022/08/30 06:51:34;;;;;;;2.90;2.50;;;;;;;17.62;69.76;98484.31;6217031;23;20016;-83
2022/08/30 06:54:04;;;;;;;3.00;2.70;;;;;;;17.80;67.78;98486.00;6238040;23;20311;-85
2022/08/30 06:56:40;;;;;;;2.88;2.25;;;;;;;18.02;69.50;98488.81;6243299;23;20020;-83
2022/08/30 06:59:25;;;;;;;3.55;2.42;;;;;;;18.19;66.35;98489.66;6195544;23;20099;-84
2022/08/30 07:01:52;;;;;;;3.40;2.80;;;;;;;18.32;67.51;98497.31;6243345;23;20095;-84
2022/08/30 07:04:19;;;;;;;3.40;2.78;;;;;;;18.45;64.70;98499.66;6243545;23;20100;-84
2022/08/30 07:06:46;;;;;;;3.92;3.22;;;;;;;18.50;66.85;98498.16;6217366;23;20062;-84
2022/08/30 07:09:12;;;;;;;4.78;2.50;;;;;;;18.75;65.73;98497.78;6216230;23;20322;-84
2022/08/30 07:11:40;;;;;;;4.32;2.78;;;;;;;18.90;66.06;98485.53;6243240;23;20349;-83
2022/08/30 07:14:07;;;;;;;3.25;2.83;;;;;;;19.01;64.47;98493.63;6243325;23;20020;-86
2022/08/30 07:16:34;;;;;;;3.53;2.40;;;;;;;19.27;64.48;98505.44;6243097;23;20024;-85
2022/08/30 07:19:04;;;;;;;4.93;3.50;;;;;;;19.11;63.94;98491.13;6216424;23;20095;-83
2022/08/30 07:21:36;;;;;;;3.37;3.07;;;;;;;19.31;64.16;98510.03;6242937;23;20070;-83
2022/08/30 07:24:05;;;;;;;3.60;3.30;;;;;;;19.23;63.85;98511.22;6242986;22;20255;-85
2022/08/30 07:26:42;;;;;;;5.57;3.13;;;;;;;19.41;63.77;98514.66;6243070;23;20107;-84
2022/08/30 07:29:09;;;;;;;3.55;2.80;;;;;;;19.51;63.28;98504.97;6242753;23;20015;-84
2022/08/30 07:31:36;;;;;;;5.03;3.75;;;;;;;19.47;62.02;98509.16;6216149;23;20038;-84
2022/08/30 07:34:05;;;;;;;3.83;2.63;;;;;;;19.75;62.47;98510.06;6243521;23;20016;-84
2022/08/30 07:36:33;;;;;;;2.53;2.20;;;;;;;19.93;63.13;98515.06;6243680;23;20016;-85
2022/08/30 07:39:00;;;;;;;3.55;2.70;;;;;;;20.18;61.26;98511.84;6243400;23;20066;-85
2022/08/30 07:41:31;;;;;;;3.72;2.65;;;;;;;20.22;60.05;98504.97;6218563;23;20020;-85
2022/08/30 07:43:58;;;;;;;3.22;2.88;;;;;;;20.40;59.19;98513.66;6217190;23;20016;-85
2022/08/30 07:46:26;;;;;;;3.90;2.75;;;;;;;20.61;60.95;98519.97;6216701;23;20022;-85
2022/08/30 07:48:56;;;;;;;4.45;2.80;;;;;;;20.76;58.42;98514.78;6243557;23;20019;-87
2022/08/30 07:51:25;;;;;;;5.50;3.22;;;;;;;20.86;58.61;98517.50;6243532;23;20406;-83
2022/08/30 07:53:54;;;;;;;4.47;3.15;;;;;;;20.91;59.13;98520.22;6211923;23;20027;-84
2022/08/30 07:56:23;;;;;;;3.85;3.10;;;;;;;20.89;58.00;98511.69;6242897;23;20499;-87
2022/08/30 07:58:52;;;;;;;3.78;2.75;;;;;;;21.03;57.20;98510.16;6192028;23;20016;-83
2022/08/30 08:01:20;;;;;;;3.28;2.97;;;;;;;21.31;57.20;98518.91;6244181;23;20073;-84
2022/08/30 08:03:49;;;;;;;4.32;3.15;;;;;;;21.36;57.03;98521.59;6243237;23;20416;-84
2022/08/30 08:06:19;;;;;;;5.30;2.90;;;;;;;21.53;56.68;98511.53;6245759;23;20051;-84
2022/08/30 08:08:46;;;;;;;4.15;3.40;;;;;;;21.60;57.25;98511.31;6217300;23;20016;-82
2022/08/30 08:11:24;;;;;;;7.70;4.40;;;;;;;21.52;56.33;98509.91;6215002;23;20017;-82
2022/08/30 08:13:56;;;;;;;3.78;3.28;;;;;;;21.84;56.51;98503.66;6217488;23;20016;-85
2022/08/30 08:16:25;;;;;;;4.38;3.35;;;;;;;22.01;55.64;98501.56;6218641;23;20020;-85
2022/08/30 08:18:54;;;;;;;3.63;3.13;;;;;;;22.12;55.45;98497.03;6215846;23;20008;-85
2022/08/30 08:21:23;;;;;;;3.30;3.00;;;;;;;22.36;55.03;98506.16;6216034;23;20016;-85
2022/08/30 08:23:51;;;;;;;3.80;2.40;;;;;;;22.50;57.69;98498.44;6217547;23;20046;-86
2022/08/30 08:26:19;;;;;;;3.45;2.63;;;;;;;22.71;54.77;98508.03;6216338;23;20012;-84
2022/08/30 08:28:47;;;;;;;2.67;2.47;;;;;;;22.84;53.85;98492.53;6217234;23;20012;-85
2022/08/30 08:31:20;;;;;;;3.40;2.80;;;;;;;23.03;55.30;98496.28;6243184;23;20051;-87
2022/08/30 08:33:57;;;;;;;3.75;3.30;;;;;;;22.94;53.61;98503.25;6243845;23;20067;-85
2022/08/30 08:36:25;;;;;;;4.78;3.25;;;;;;;22.80;54.05;98486.13;6218444;23;20051;-85
2022/08/30 08:38:52;;;;;;;5.63;2.95;;;;;;;23.09;53.24;98500.56;6243256;23;20066;-86
2022/08/30 08:42:04;;;;;;;4.07;2.63;;;;;;;23.23;53.69;98498.09;6244669;23;20023;-87
2022/08/30 08:44:41;;;;;;;3.78;2.88;;;;;;;23.54;53.15;98485.41;6218361;23;20074;-86
2022/08/30 08:47:22;;;;;;;3.50;3.20;;;;;;;23.59;53.51;98488.06;6245687;23;20016;-84
2022/08/30 08:49:58;;;;;;;3.17;2.60;;;;;;;23.75;51.15;98465.53;6245128;23;20561;-87
2022/08/30 08:55:52;;;;;;;5.28;3.28;;;;;;;24.03;50.05;98484.66;6244608;23;20031;-84
2022/08/30 08:58:56;;;;;;;3.17;2.80;;;;;;;24.08;51.13;98484.63;6246692;23;20027;-86
2022/08/30 09:01:37;;;;;;;4.07;2.95;;;;;;;24.28;50.56;98481.00;6201340;23;20385;-86
2022/08/30 09:04:13;;;;;;;3.95;3.05;;;;;;;24.35;50.13;98483.38;6249652;23;20073;-90
2022/08/30 09:06:54;;;;;;;3.20;2.90;;;;;;;24.46;49.29;98490.25;6244816;23;20500;-86
2022/08/30 09:09:28;;;;;;;4.07;3.50;;;;;;;24.48;48.88;98493.50;6244410;23;20614;-85
2022/08/30 09:11:55;;;;;;;6.43;4.53;;;;;;;24.08;48.31;98484.63;6243580;23;20441;-84
2022/08/30 09:14:28;;;;;;;3.67;3.03;;;;;;;24.43;48.87;98488.16;6218020;23;20062;-87
2022/08/30 09:17:16;;;;;;;5.50;3.60;;;;;;;24.53;47.57;98496.13;6219301;23;20012;-84
2022/08/30 09:19:50;;;;;;;3.08;2.60;;;;;;;24.61;47.15;98498.19;6246755;23;20513;-86
2022/08/30 09:22:36;;;;;;;4.90;3.35;;;;;;;24.74;47.88;98497.53;6246034;23;20438;-85
2022/08/30 09:25:23;;;;;;;3.00;2.70;;;;;;;24.84;47.71;98499.34;6245506;22;20020;-88
2022/08/30 09:27:54;;;;;;;3.70;2.92;;;;;;;24.91;45.52;98499.81;6219100;23;20071;-87
2022/08/30 09:30:28;;;;;;;3.03;2.72;;;;;;;25.07;45.41;98495.13;6195284;23;20043;-86
2022/08/30 09:33:03;;;;;;;3.33;3.03;;;;;;;25.25;44.47;98493.56;6221668;23;20016;-85
2022/08/30 09:35:48;;;;;;;2.95;2.53;;;;;;;25.51;45.98;98491.41;6219809;23;20507;-86
2022/08/30 09:38:34;;;;;;;4.07;3.65;;;;;;;25.33;45.47;98480.34;6221284;23;20457;-85
2022/08/30 09:41:44;;;;;;;4.32;3.20;;;;;;;25.51;46.23;98483.34;6222474;23;20091;-86
2022/08/30 09:44:18;;;;;;;;;;;;;;;25.61;45.07;98485.91;6133547;23;20116;-89
2022/08/30 09:46:49;;;;;;;3.38;2.70;;;;;;;25.71;43.41;98466.97;6237133;23;20257;-87
2022/08/30 09:49:38;;;;;;;3.47;2.60;;;;;;;25.81;42.59;98480.31;6248182;23;20020;-85
2022/08/30 09:52:14;;;;;;;4.88;3.70;;;;;;;25.44;42.76;98482.91;6221751;23;20051;-83
2022/08/30 09:55:22;;;;;;;5.88;3.08;;;;;;;25.59;43.92;98472.75;6220124;23;20487;-88
2022/08/30 09:58:34;;;;;;;4.50;3.70;;;;;;;25.55;44.00;98477.13;6220516;23;20016;-88
2022/08/30 10:01:15;;;;;;;6.45;3.10;;;;;;;25.57;43.20;98464.19;6220547;23;20445;-86
2022/08/30 10:04:05;;;;;;;6.05;3.22;;;;;;;25.61;43.74;98453.69;6221834;23;20075;-85
2022/08/30 10:06:55;;;;;;;3.28;2.90;;;;;;;25.69;42.14;98469.16;6248176;23;20346;-87
2022/08/30 10:10:11;;;;;;;3.53;2.60;;;;;;;25.77;42.28;98465.84;6222005;23;20019;-86
2022/08/30 10:13:28;;;;;;;3.00;2.58;;;;;;;25.80;41.69;98449.16;6246949;23;20338;-85
2022/08/30 10:16:42;;;;;;;3.80;2.97;;;;;;;25.69;40.75;98449.56;6246941;23;20020;-86
2022/08/30 10:19:59;;;;;;;3.53;2.92;;;;;;;25.60;41.33;98444.81;6219832;23;20410;-86
2022/08/30 10:22:39;;;;;;;4.00;2.78;;;;;;;25.73;41.18;98453.22;6221911;23;20014;-86
2022/08/30 10:25:20;;;;;;;4.85;2.55;;;;;;;25.94;41.04;98443.03;6199250;23;20386;-86
2022/08/30 10:27:52;;;;;;;2.88;2.25;;;;;;;26.16;42.69;98440.56;6221835;23;20024;-86
2022/08/30 10:30:23;;;;;;;2.78;2.53;;;;;;;26.19;38.75;98437.28;6221355;23;20054;-88
2022/08/30 10:33:16;;;;;;;2.10;1.80;;;;;;;26.49;39.77;98440.59;6224269;23;20020;-86
2022/08/30 10:35:56;;;;;;;3.92;2.85;;;;;;;26.40;37.68;98416.25;6222252;23;20028;-86
2022/08/30 10:38:31;;;;;;;2.97;2.67;;;;;;;26.61;36.41;98416.72;6248516;23;20020;-87
2022/08/30 10:41:32;;;;;;;2.83;2.30;;;;;;;26.91;36.24;98421.53;6221991;23;20020;-86
2022/08/30 10:44:29;;;;;;;3.80;2.40;;;;;;;26.95;35.77;98419.84;6247996;23;20022;-88
2022/08/30 10:47:34;;;;;;;2.80;2.30;;;;;;;27.11;34.75;98416.84;6199536;23;20026;-88
2022/08/30 10:50:28;;;;;;;2.50;2.30;;;;;;;27.07;35.62;98410.50;6222847;23;20058;-90
2022/08/30 10:53:29;;;;;;;2.75;2.35;;;;;;;27.23;34.34;98417.19;6251915;23;20326;-87
2022/08/30 10:56:23;;;;;;;2.75;2.03;;;;;;;27.44;36.21;98410.25;6228912;23;20035;-88
2022/08/30 10:58:57;;;;;;;1.80;1.70;;;;;;;27.58;34.79;98415.59;6254975;23;20016;-87
2022/08/30 11:01:47;;;;;;;2.50;2.13;;;;;;;27.60;33.99;98416.13;6225607;23;20023;-88
2022/08/30 11:04:22;;;;;;;3.63;2.70;;;;;;;27.41;34.20;98413.56;6222331;23;20048;-85
2022/08/30 11:07:18;;;;;;;2.47;2.28;;;;;;;27.10;33.99;98397.22;6223726;23;20067;-87
2022/08/30 11:10:43;;;;;;;2.72;2.22;;;;;;;27.19;33.57;98408.91;6248659;23;20016;-89
2022/08/30 11:13:30;;;;;;;2.72;2.40;;;;;;;27.25;32.87;98389.94;6210764;23;20070;-88
2022/08/30 11:16:14;;;;;;;3.47;2.75;;;;;;;27.30;32.80;98398.72;6224228;23;20020;-87
2022/08/30 11:18:48;;;;;;;2.40;2.08;;;;;;;27.45;32.84;98397.59;6247765;23;20026;-86
2022/08/30 11:21:38;;;;;;;2.58;1.90;;;;;;;27.56;31.62;98374.72;6230112;23;20019;-88
2022/08/30 11:24:22;;;;;;;2.63;2.42;;;;;;;27.63;30.88;98399.34;6197592;22;20310;-85
2022/08/30 11:26:58;;;;;;;2.65;2.10;;;;;;;27.61;31.49;98388.06;6198349;23;20307;-86
2022/08/30 11:29:39;;;;;;;2.63;2.20;;;;;;;27.75;30.30;98388.06;6221046;23;20344;-85
2022/08/30 11:32:15;;;;;;;2.47;2.05;;;;;;;27.87;30.43;98396.38;6251734;23;20016;-87
2022/08/30 11:34:45;;;;;;;2.00;1.90;;;;;;;27.98;30.42;98384.28;6224357;23;20024;-88
2022/08/30 11:37:12;;;;;;;3.53;2.30;;;;;;;28.00;31.22;98400.13;6221255;23;20047;-87
2022/08/30 11:39:53;;;;;;;3.08;2.15;;;;;;;27.81;29.51;98394.13;6220871;23;20012;-86
2022/08/30 11:42:38;;;;;;;2.40;2.20;;;;;;;27.86;30.83;98380.53;6221096;23;20024;-87
2022/08/30 11:45:22;;;;;;;2.15;2.03;;;;;;;27.90;29.88;98385.00;6221476;23;20111;-87
2022/08/30 11:48:26;;;;;;;3.28;2.72;;;;;;;27.83;30.49;98378.44;6248093;23;20020;-88
2022/08/30 11:51:19;;;;;;;2.60;2.17;;;;;;;27.84;31.41;98380.84;6249289;23;20087;-88
2022/08/30 11:54:12;;;;;;;2.50;2.30;;;;;;;27.95;31.05;98374.13;6247100;23;20464;-89
2022/08/30 11:57:44;;;;;;;2.88;2.00;;;;;;;28.07;31.73;98384.34;6225663;23;20085;-85
2022/08/30 12:00:41;;;;;;;2.33;2.13;;;;;;;27.94;31.90;98388.66;6250733;23;20065;-87
2022/08/30 12:03:19;;;;;;;2.55;2.30;;;;;;;28.12;31.93;98391.50;6200715;23;20468;-86
2022/08/30 12:06:07;;;;;;;2.45;2.25;;;;;;;28.14;29.97;98375.81;6221876;23;20016;-86
2022/08/30 12:08:45;;;;;;;3.50;2.58;;;;;;;28.08;29.46;98366.28;6246185;23;20016;-87
2022/08/30 12:11:12;;;;;;;3.13;2.55;;;;;;;28.05;28.97;98374.97;6220469;23;20012;-86